Airfield :
LOGIN :

Register | Disclaimer

   EN    FR    IT 

 










Legend :    VFR   Marginal VFR   IFR   Intensive IFR   Very Intensive IFR
Visi :
Ceiling :
>= 8 km
>= 3000ft
5 to 8 km
1000 to 3000 ft
1500m to 5 km
500 to 1000 ft
800 to 1500m
200 to 500 ft
< 800m
< 200 ft
Symbols :   Thunderstorms  Fog  Heavy snow  Heavy precipitations  Wind > 20 kt
SIGMETs :     Misc.  Thunderstorms  Icing  Turbulence  Mountain Waves  Volcanic Ashes






- Airport Elevation : 3381 ft
- IATA code : KYA


LTAN - Konya AB

CURRENT METAR :
  • 192350Z 31009KT 9999 FEW040 M06/M13 Q1023 NOSIG

EXPIRED METARs :
  • 192250Z 31008KT 9999 FEW040 M07/M12 Q1023 NOSIG
  • 192150Z 34015KT 9999 FEW040 M06/M12 Q1022 NOSIG

TAF TAF LTAN
Valid from the 20 at 00:00 until the 20 at 09:00 UTC


192240Z 2000/2009 34009KT 9999 FEW040



MET'MAP, your aeronautical weather chart ! - Copyright ORBIFLY December 2007 - Disclaimer

ORBIFLY MET'MAP TEAM :

Programming & Development : Alexandra Zaïnal
Concept & original design : Baudouin d'Aumeries
Assistance for programming : Marc-Olivier Méhu
Technical & hardware support : Manuel Goepfert

Contact : metmap@orbifly.com




SOURCES & CREDITS :

   NOAA